Time;durP1;ratioP1;P1;durP2;ratioP2;P2;SDS_P1;SDS_P2;PMS_P1;PMS_P2;Temp;Humidity;BMP_temperature;BMP_pressure;BME280_temperature;BME280_humidity;BME280_pressure;Samples;Min_cycle;Max_cycle;Signal;HPM_P1;HPM_P2
2023/02/18 00:01:24;;;;;;;;;12.75;11.25;;;;;8.58;95.42;98079.28;4884813;28;104586;-72
2023/02/18 00:03:51;;;;;;;;;10.50;8.75;;;;;8.57;95.44;98078.44;4876147;28;108901;-72
2023/02/18 00:06:22;;;;;;;;;15.75;13.75;;;;;8.60;95.80;98082.63;4878828;28;102369;-74
2023/02/18 00:08:50;;;;;;;;;11.00;9.75;;;;;8.61;94.98;98073.47;4871836;28;102384;-73
2023/02/18 00:11:19;;;;;;;;;13.25;11.75;;;;;8.63;94.86;98083.03;4873812;28;102293;-72
2023/02/18 00:13:54;;;;;;;;;12.00;10.75;;;;;8.58;94.75;98069.34;4874834;28;104038;-71
2023/02/18 00:16:23;;;;;;;;;15.50;14.00;;;;;8.64;94.64;98073.09;4877024;28;101990;-73
2023/02/18 00:18:53;;;;;;;;;18.00;16.00;;;;;8.66;94.04;98065.63;4876041;28;102003;-72
2023/02/18 00:21:20;;;;;;;;;13.00;12.00;;;;;8.64;93.83;98075.78;4874974;28;102252;-72
2023/02/18 00:23:47;;;;;;;;;15.00;13.75;;;;;8.69;93.59;98087.59;4877099;28;104019;-73
2023/02/18 00:26:16;;;;;;;;;15.00;11.00;;;;;8.72;93.78;98078.31;4877908;28;104046;-72
2023/02/18 00:28:44;;;;;;;;;16.50;14.00;;;;;8.63;93.31;98066.88;4878638;28;102239;-72
2023/02/18 00:31:17;;;;;;;;;14.50;13.75;;;;;8.73;93.60;98086.19;4881149;28;102229;-73
2023/02/18 00:33:45;;;;;;;;;16.75;13.75;;;;;8.75;93.76;98100.28;4873313;28;103486;-73
2023/02/18 00:36:18;;;;;;;;;10.00;9.00;;;;;8.79;93.90;98101.53;4873758;28;102206;-73
2023/02/18 00:38:52;;;;;;;;;14.00;12.75;;;;;8.76;94.41;98112.75;4864494;28;103042;-73
2023/02/18 00:41:21;;;;;;;;;14.50;13.00;;;;;8.71;94.52;98144.03;4879648;28;102375;-73
2023/02/18 00:43:48;;;;;;;;;14.00;12.00;;;;;8.70;93.82;98162.06;4890207;28;103849;-72
2023/02/18 00:46:17;;;;;;;;;13.00;12.00;;;;;8.74;94.35;98192.97;4899785;28;102009;-73
2023/02/18 00:48:44;;;;;;;;;18.50;15.00;;;;;8.74;91.66;98187.56;4894244;28;102393;-72
2023/02/18 00:51:11;;;;;;;;;11.25;10.00;;;;;8.66;91.99;98173.44;4895728;28;101936;-72
2023/02/18 00:53:39;;;;;;;;;20.00;19.00;;;;;8.75;87.18;98177.63;4907199;28;104253;-72
2023/02/18 00:56:06;;;;;;;;;16.50;14.50;;;;;8.71;90.22;98179.91;4913299;28;102460;-72
2023/02/18 00:58:35;;;;;;;;;16.50;12.25;;;;;8.64;87.22;98184.44;4895395;28;103595;-72
2023/02/18 01:01:03;;;;;;;;;14.25;14.00;;;;;8.64;85.74;98192.50;4889940;28;102583;-73
2023/02/18 01:03:33;;;;;;;;;15.75;11.25;;;;;8.55;85.71;98199.09;4895690;28;104062;-72
2023/02/18 01:06:00;;;;;;;;;7.25;6.00;;;;;8.56;84.33;98202.59;4894994;28;102274;-73
2023/02/18 01:08:27;;;;;;;;;4.00;3.00;;;;;8.36;83.54;98179.06;4894990;28;102227;-73
2023/02/18 01:10:56;;;;;;;;;6.50;3.50;;;;;8.49;83.08;98197.19;4899427;28;102298;-72
2023/02/18 01:13:24;;;;;;;;;3.50;3.50;;;;;8.43;83.08;98195.25;4897146;28;108496;-73
2023/02/18 01:15:52;;;;;;;;;3.25;3.25;;;;;8.40;83.73;98199.19;4888500;28;102212;-71
2023/02/18 01:18:20;;;;;;;;;3.00;2.25;;;;;8.36;83.24;98195.22;4894410;28;102328;-72
2023/02/18 01:20:47;;;;;;;;;4.00;4.00;;;;;8.26;82.87;98197.41;4895545;28;102390;-72
2023/02/18 01:23:15;;;;;;;;;6.25;3.25;;;;;8.39;82.91;98210.16;4887978;28;104115;-71
2023/02/18 01:25:42;;;;;;;;;4.00;3.00;;;;;8.35;82.18;98201.66;4893687;28;102397;-71
2023/02/18 01:28:11;;;;;;;;;3.25;2.50;;;;;8.36;81.96;98214.09;4878389;28;102115;-72
2023/02/18 01:30:38;;;;;;;;;3.50;2.00;;;;;8.37;81.81;98207.69;4893960;28;102174;-71
2023/02/18 01:33:06;;;;;;;;;3.00;3.00;;;;;8.44;79.34;98186.16;4899016;28;104026;-71
2023/02/18 01:35:36;;;;;;;;;3.75;3.00;;;;;8.43;79.14;98189.88;4890062;28;102303;-72
2023/02/18 01:38:03;;;;;;;;;3.50;3.00;;;;;8.44;79.60;98202.31;4894683;28;102476;-71
2023/02/18 01:40:30;;;;;;;;;6.50;1.75;;;;;8.49;77.71;98199.88;4896008;28;102502;-71
2023/02/18 01:42:57;;;;;;;;;3.00;2.75;;;;;8.50;78.35;98204.25;4894631;28;104300;-71
2023/02/18 01:45:46;;;;;;;;;0.75;0.75;;;;;8.42;78.88;98210.59;4897381;28;104400;-70
2023/02/18 01:48:13;;;;;;;;;2.25;2.00;;;;;8.35;78.35;98217.81;4892927;28;102074;-72
2023/02/18 01:50:47;;;;;;;;;1.50;1.50;;;;;8.36;78.40;98214.09;4897084;28;102532;-71
2023/02/18 01:53:19;;;;;;;;;2.00;2.00;;;;;8.35;77.20;98216.97;4891213;28;104136;-70
2023/02/18 01:55:48;;;;;;;;;1.50;1.50;;;;;8.34;75.77;98218.00;4895672;28;102389;-69
2023/02/18 01:58:15;;;;;;;;;3.00;3.00;;;;;8.29;75.87;98239.25;4892540;28;103533;-72
2023/02/18 02:00:42;;;;;;;;;1.75;1.00;;;;;8.27;75.20;98214.41;4895368;28;101994;-70
2023/02/18 02:03:09;;;;;;;;;2.00;1.25;;;;;8.29;74.73;98220.41;4887072;28;103999;-69
2023/02/18 02:05:36;;;;;;;;;1.50;1.50;;;;;8.27;74.15;98217.94;4889482;28;109666;-71
2023/02/18 02:08:12;;;;;;;;;3.00;2.00;;;;;8.22;74.20;98209.59;4890815;28;104201;-70
2023/02/18 02:11:31;;;;;;;;;2.75;2.00;;;;;8.20;71.68;98210.81;4888476;28;102565;-71
2023/02/18 02:14:19;;;;;;;;;0.75;0.75;;;;;8.19;69.46;98201.91;4886774;28;107597;-71
2023/02/18 02:17:14;;;;;;;;;2.00;0.50;;;;;8.31;67.64;98203.06;4892414;28;101870;-70
2023/02/18 02:20:17;;;;;;;;;1.75;1.00;;;;;8.28;65.60;98213.38;4892786;28;102255;-71
2023/02/18 02:23:14;;;;;;;;;1.00;0.00;;;;;8.29;61.25;98209.63;4892753;28;102120;-70
2023/02/18 02:26:31;;;;;;;;;1.00;0.25;;;;;8.27;60.70;98209.00;4889421;28;107951;-73
2023/02/18 02:29:17;;;;;;;;;0.00;0.00;;;;;8.29;60.41;98209.63;4893191;28;102476;-71
2023/02/18 02:32:15;;;;;;;;;2.00;0.00;;;;;8.30;60.58;98222.94;4893790;28;102380;-70
2023/02/18 02:34:47;;;;;;;;;0.00;0.00;;;;;8.36;57.59;98221.34;4892589;28;102463;-70
2023/02/18 02:37:24;;;;;;;;;0.00;0.00;;;;;8.29;59.13;98236.56;4884457;28;104006;-68
2023/02/18 02:40:05;;;;;;;;;0.00;0.00;;;;;8.26;59.02;98223.50;4891874;28;102371;-70
2023/02/18 02:42:45;;;;;;;;;1.00;0.50;;;;;8.19;59.45;98228.84;4872321;28;102326;-69
2023/02/18 02:45:19;;;;;;;;;1.00;1.00;;;;;8.23;59.45;98231.97;4877406;28;102229;-72
2023/02/18 02:48:05;;;;;;;;;1.00;1.00;;;;;8.18;60.52;98232.56;4874156;28;103989;-70
2023/02/18 02:50:53;;;;;;;;;0.00;0.00;;;;;8.15;61.36;98232.94;4871997;28;102365;-70
2023/02/18 02:53:26;;;;;;;;;1.00;1.00;;;;;8.00;63.21;98243.81;4869678;28;101795;-71
2023/02/18 02:55:55;;;;;;;;;2.25;1.00;;;;;8.00;64.23;98243.81;4876264;28;101945;-71
2023/02/18 02:58:22;;;;;;;;;1.00;1.00;;;;;7.95;65.18;98235.47;4873320;28;107806;-71
2023/02/18 03:01:10;;;;;;;;;1.00;0.00;;;;;7.90;67.44;98240.59;4864752;28;102494;-71
2023/02/18 03:03:37;;;;;;;;;1.25;0.00;;;;;7.88;69.09;98242.63;4874302;28;102086;-70
2023/02/18 03:06:22;;;;;;;;;1.50;1.50;;;;;7.78;70.83;98247.53;4875993;28;102106;-71
2023/02/18 03:09:12;;;;;;;;;3.00;1.00;;;;;7.79;71.57;98245.69;4874386;28;103936;-71
2023/02/18 03:11:59;;;;;;;;;2.25;2.00;;;;;7.73;72.76;98252.66;4873941;28;102510;-70
2023/02/18 03:14:43;;;;;;;;;2.00;2.00;;;;;7.64;73.73;98245.72;4873900;28;102442;-69
2023/02/18 03:17:20;;;;;;;;;1.75;0.75;;;;;7.65;74.49;98251.94;4875747;28;102364;-69
2023/02/18 03:19:56;;;;;;;;;1.00;1.00;;;;;7.57;75.01;98263.63;4857555;28;103942;-69
2023/02/18 03:22:31;;;;;;;;;2.00;2.00;;;;;7.50;74.64;98265.44;4874998;28;102158;-70
2023/02/18 03:24:59;;;;;;;;;1.00;1.00;;;;;7.49;72.67;98266.44;4865015;28;102318;-72
2023/02/18 03:27:31;;;;;;;;;1.00;0.00;;;;;7.52;70.89;98268.78;4878092;28;102279;-72
2023/02/18 03:30:12;;;;;;;;;2.00;1.50;;;;;7.57;68.52;98293.22;4873396;28;108616;-72
2023/02/18 03:32:39;;;;;;;;;2.00;2.00;;;;;7.56;68.60;98286.22;4874773;28;102331;-71
2023/02/18 03:35:14;;;;;;;;;1.75;1.00;;;;;7.53;67.78;98289.25;4876029;28;102468;-70
2023/02/18 03:37:53;;;;;;;;;2.00;2.00;;;;;7.50;67.52;98289.66;4875512;28;102670;-70
2023/02/18 03:40:20;;;;;;;;;2.00;1.50;;;;;7.45;65.80;98297.44;4873134;28;104251;-70
2023/02/18 03:42:47;;;;;;;;;1.25;1.00;;;;;7.41;67.42;98288.94;4871940;28;110819;-71
2023/02/18 03:45:14;;;;;;;;;3.00;2.00;;;;;7.29;67.50;98277.00;4883787;28;102489;-70
2023/02/18 03:47:41;;;;;;;;;0.00;0.00;;;;;7.32;68.16;98294.59;4865533;28;102353;-72
2023/02/18 03:50:08;;;;;;;;;3.75;2.00;;;;;7.26;69.36;98288.09;4867544;28;104001;-71
2023/02/18 03:52:35;;;;;;;;;1.00;1.00;;;;;7.15;70.76;98297.50;4866836;28;102342;-71
2023/02/18 03:55:04;;;;;;;;;2.25;1.50;;;;;7.08;72.52;98293.88;4869667;28;102023;-72
2023/02/18 03:57:31;;;;;;;;;1.50;1.00;;;;;7.05;73.53;98285.34;4867561;28;102551;-70
2023/02/18 03:59:58;;;;;;;;;1.50;1.25;;;;;6.96;74.52;98287.31;4848063;28;104213;-72
2023/02/18 04:02:26;;;;;;;;;2.00;2.00;;;;;6.96;76.83;98284.63;4864764;28;102445;-70
2023/02/18 04:04:53;;;;;;;;;3.25;2.75;;;;;6.93;77.16;98301.13;4870306;28;102439;-71
2023/02/18 04:07:21;;;;;;;;;2.50;2.25;;;;;6.96;75.10;98291.84;4875443;28;102473;-70
2023/02/18 04:09:48;;;;;;;;;4.00;3.00;;;;;6.97;75.97;98286.28;4887802;28;103967;-71
2023/02/18 04:12:15;;;;;;;;;3.50;3.00;;;;;7.03;74.60;98304.34;4876048;28;102321;-71
2023/02/18 04:14:41;;;;;;;;;3.25;2.50;;;;;7.03;74.85;98295.44;4858940;28;102144;-71
2023/02/18 04:17:08;;;;;;;;;3.00;3.00;;;;;7.00;74.47;98296.66;4882274;28;102074;-71
2023/02/18 04:19:35;;;;;;;;;3.00;3.00;;;;;7.00;75.72;98298.50;4878632;28;104027;-72
2023/02/18 04:22:02;;;;;;;;;3.00;3.00;;;;;6.99;76.24;98297.69;4878463;28;102236;-71
2023/02/18 04:24:29;;;;;;;;;3.50;3.00;;;;;6.97;76.15;98307.81;4886795;28;102515;-71
2023/02/18 04:26:56;;;;;;;;;7.50;4.00;;;;;6.91;75.40;98308.53;4881149;28;102506;-71
2023/02/18 04:29:23;;;;;;;;;3.25;2.00;;;;;7.03;67.98;98292.75;4855154;28;108213;-71
2023/02/18 04:31:50;;;;;;;;;3.00;1.50;;;;;7.00;67.48;98311.97;4882603;28;102011;-70
2023/02/18 04:34:17;;;;;;;;;1.00;1.00;;;;;7.10;62.05;98297.22;4858644;28;102366;-71
2023/02/18 04:36:44;;;;;;;;;0.75;0.00;;;;;7.21;59.96;98311.19;4881358;28;101910;-71
2023/02/18 04:39:11;;;;;;;;;1.25;1.00;;;;;7.14;57.49;98305.75;4878244;28;104017;-72
2023/02/18 04:41:38;;;;;;;;;1.00;1.00;;;;;7.18;56.91;98317.78;4885668;28;102431;-71
2023/02/18 04:44:05;;;;;;;;;1.00;1.00;;;;;7.02;57.28;98318.00;4893458;28;102448;-71
2023/02/18 04:46:32;;;;;;;;;1.50;0.00;;;;;7.07;53.42;98299.44;4893227;28;102305;-70
2023/02/18 04:48:59;;;;;;;;;0.00;0.00;;;;;7.10;51.02;98320.59;4891332;28;104126;-72
2023/02/18 04:51:26;;;;;;;;;0.75;0.75;;;;;7.12;50.90;98324.75;4896090;28;102347;-71
2023/02/18 04:53:53;;;;;;;;;0.00;0.00;;;;;7.12;48.53;98322.06;4892294;28;102195;-70
2023/02/18 04:56:20;;;;;;;;;1.00;0.00;;;;;7.11;48.92;98336.50;4892972;28;102570;-72
2023/02/18 04:58:47;;;;;;;;;0.00;0.00;;;;;7.10;48.61;98337.56;4890684;28;103980;-71
2023/02/18 05:01:14;;;;;;;;;0.00;0.00;;;;;7.02;49.66;98332.28;4890515;28;102371;-71
2023/02/18 05:03:41;;;;;;;;;0.00;0.00;;;;;6.97;49.26;98344.59;4872364;28;102227;-71
2023/02/18 05:06:08;;;;;;;;;0.00;0.00;;;;;6.87;50.39;98334.09;4894502;28;102608;-70
2023/02/18 05:08:35;;;;;;;;;0.50;0.50;;;;;6.80;50.54;98332.34;4891605;28;104088;-71
2023/02/18 05:11:08;;;;;;;;;2.50;1.50;;;;;6.62;50.31;98319.22;4889930;28;102404;-71
2023/02/18 05:13:35;;;;;;;;;9.00;4.00;;;;;6.65;50.71;98326.94;4892533;28;102009;-69
2023/02/18 05:16:02;;;;;;;;;2.00;1.75;;;;;6.61;50.95;98331.03;4892069;28;102494;-70
2023/02/18 05:18:29;;;;;;;;;3.25;2.00;;;;;6.56;51.88;98328.88;4893653;28;103999;-70
2023/02/18 05:20:56;;;;;;;;;1.00;1.00;;;;;6.49;52.56;98329.78;4890831;28;102156;-70
2023/02/18 05:23:24;;;;;;;;;1.00;0.00;;;;;6.43;53.33;98333.19;4892084;28;102374;-70
2023/02/18 05:25:51;;;;;;;;;0.50;0.50;;;;;6.37;53.70;98333.91;4893600;28;102052;-71
2023/02/18 05:28:18;;;;;;;;;0.00;0.00;;;;;6.33;55.12;98327.25;4892939;28;103997;-70
2023/02/18 05:30:45;;;;;;;;;1.25;1.00;;;;;6.31;52.70;98331.94;4891412;28;102302;-71
2023/02/18 05:33:12;;;;;;;;;2.00;1.75;;;;;6.32;53.25;98331.78;4888609;28;109654;-71
2023/02/18 05:35:39;;;;;;;;;0.50;0.50;;;;;6.35;52.51;98327.91;4893575;28;102477;-71
2023/02/18 05:38:06;;;;;;;;;2.00;1.00;;;;;6.36;53.66;98326.88;4892011;28;104045;-70
2023/02/18 05:40:33;;;;;;;;;2.00;1.25;;;;;6.34;53.15;98334.28;4895108;28;103213;-70
2023/02/18 05:43:00;;;;;;;;;1.00;1.00;;;;;6.30;53.13;98338.34;4880863;28;101872;-71
2023/02/18 05:45:27;;;;;;;;;2.00;2.00;;;;;6.25;52.70;98331.69;4887578;28;102223;-71
2023/02/18 05:47:54;;;;;;;;;0.00;0.00;;;;;6.28;52.43;98344.72;4875457;28;108612;-70
2023/02/18 05:50:21;;;;;;;;;1.00;1.00;;;;;6.28;52.33;98352.78;4883907;28;102103;-71
2023/02/18 05:52:48;;;;;;;;;0.50;0.50;;;;;6.17;52.54;98334.41;4881222;28;102062;-70
2023/02/18 05:55:15;;;;;;;;;2.00;2.00;;;;;6.22;53.04;98340.06;4867985;28;102076;-70
2023/02/18 05:57:42;;;;;;;;;1.00;0.75;;;;;6.18;53.50;98338.75;4877412;28;104035;-70
2023/02/18 06:00:10;;;;;;;;;1.50;1.00;;;;;6.13;54.00;98334.94;4877407;28;102133;-71
2023/02/18 06:02:37;;;;;;;;;2.00;1.00;;;;;6.02;54.42;98330.84;4878073;28;102237;-71
2023/02/18 06:05:05;;;;;;;;;1.75;1.75;;;;;6.12;53.64;98350.19;4868166;28;101975;-72
2023/02/18 06:07:32;;;;;;;;;0.75;0.75;;;;;6.14;53.37;98355.41;4872191;28;103977;-72
2023/02/18 06:09:59;;;;;;;;;0.50;0.00;;;;;6.20;52.79;98358.22;4884720;28;102522;-71
2023/02/18 06:12:26;;;;;;;;;1.00;1.00;;;;;6.23;52.33;98363.22;4879704;28;102590;-71
2023/02/18 06:14:53;;;;;;;;;1.00;0.75;;;;;6.30;52.15;98363.34;4887013;28;103009;-71
2023/02/18 06:17:21;;;;;;;;;1.00;0.00;;;;;6.32;51.30;98357.78;4879011;28;104006;-71
2023/02/18 06:19:48;;;;;;;;;0.00;0.00;;;;;6.37;52.18;98364.28;4885332;28;102189;-70
2023/02/18 06:22:15;;;;;;;;;1.00;0.00;;;;;6.43;51.01;98365.44;4882659;28;102486;-71
2023/02/18 06:24:42;;;;;;;;;0.00;0.00;;;;;6.49;50.76;98362.84;4881147;28;102020;-72
2023/02/18 06:27:09;;;;;;;;;0.00;0.00;;;;;6.57;50.61;98360.09;4879621;28;103968;-71
2023/02/18 06:29:36;;;;;;;;;0.50;0.00;;;;;6.63;50.25;98370.09;4881420;28;102426;-70
2023/02/18 06:32:03;;;;;;;;;2.00;2.00;;;;;6.70;50.79;98373.75;4883705;28;102929;-70
2023/02/18 06:34:30;;;;;;;;;1.25;1.00;;;;;6.78;50.11;98369.31;4877125;28;102118;-71
2023/02/18 06:36:57;;;;;;;;;3.25;2.00;;;;;6.85;49.63;98371.06;4877304;28;103929;-71
2023/02/18 06:39:28;;;;;;;;;2.00;2.00;;;;;6.95;49.82;98373.50;4872070;28;102076;-71
2023/02/18 06:41:55;;;;;;;;;1.00;1.00;;;;;6.99;49.95;98370.25;4873601;28;102452;-71
2023/02/18 06:44:22;;;;;;;;;1.00;1.00;;;;;6.96;50.21;98359.03;4886380;28;102236;-71
2023/02/18 06:46:49;;;;;;;;;1.50;1.50;;;;;7.07;49.25;98364.78;4875023;28;104456;-72
2023/02/18 06:49:16;;;;;;;;;3.00;2.00;;;;;7.08;48.13;98366.47;4871305;28;102149;-71
2023/02/18 06:51:43;;;;;;;;;0.75;0.75;;;;;7.08;48.94;98361.09;4876850;28;104706;-71
2023/02/18 06:54:10;;;;;;;;;0.00;0.00;;;;;7.03;48.19;98363.47;4879650;28;102447;-71
2023/02/18 06:56:37;;;;;;;;;1.50;1.00;;;;;7.17;47.30;98383.34;4874229;28;104032;-71
2023/02/18 06:59:04;;;;;;;;;2.00;1.50;;;;;7.28;47.91;98382.06;4877635;28;102260;-71
2023/02/18 07:01:31;;;;;;;;;1.00;1.00;;;;;7.28;47.50;98392.81;4881721;28;102235;-71
2023/02/18 07:03:58;;;;;;;;;1.25;1.00;;;;;7.28;47.29;98388.25;4872730;28;102165;-71
2023/02/18 07:06:25;;;;;;;;;1.00;1.00;;;;;7.39;47.85;98382.41;4834708;28;108777;-72
2023/02/18 07:08:52;;;;;;;;;0.50;0.50;;;;;7.51;47.86;98377.41;4867863;28;102629;-71
2023/02/18 07:11:19;;;;;;;;;1.00;1.00;;;;;7.43;48.09;98375.63;4837885;28;102165;-71
2023/02/18 07:13:46;;;;;;;;;1.25;1.00;;;;;7.55;48.00;98389.47;4872335;28;103006;-70
2023/02/18 07:16:13;;;;;;;;;2.00;1.25;;;;;7.38;47.51;98382.59;4863510;28;104199;-70
2023/02/18 07:18:40;;;;;;;;;1.00;1.00;;;;;7.36;47.43;98384.63;4866829;28;102145;-72
2023/02/18 07:21:07;;;;;;;;;1.25;1.25;;;;;7.43;48.11;98396.34;4874688;28;102512;-70
2023/02/18 07:23:34;;;;;;;;;0.00;0.00;;;;;7.45;47.71;98383.53;4873035;28;102400;-71
2023/02/18 07:26:07;;;;;;;;;1.00;0.00;;;;;7.47;47.59;98398.47;4874487;28;103968;-70
2023/02/18 07:28:35;;;;;;;;;2.00;1.00;;;;;7.37;48.14;98387.16;4873947;28;102375;-72
2023/02/18 07:31:03;;;;;;;;;1.00;0.00;;;;;7.44;47.51;98389.91;4877796;28;102377;-71
2023/02/18 07:33:30;;;;;;;;;2.00;1.00;;;;;7.38;47.39;98382.59;4878958;28;102387;-71
2023/02/18 07:35:59;;;;;;;;;2.50;0.00;;;;;7.35;48.59;98382.97;4877348;28;103628;-72
2023/02/18 07:38:26;;;;;;;;;1.00;1.00;;;;;7.30;48.08;98385.38;4870998;28;102465;-70
2023/02/18 07:40:55;;;;;;;;;1.00;0.00;;;;;7.29;46.44;98381.88;4877929;28;104110;-69
2023/02/18 07:43:22;;;;;;;;;0.00;0.00;;;;;7.35;47.09;98401.78;4892068;28;102472;-71
2023/02/18 07:45:49;;;;;;;;;1.00;1.00;;;;;7.34;47.73;98386.69;4891133;28;104038;-71
2023/02/18 07:48:16;;;;;;;;;0.75;0.75;;;;;7.34;46.53;98386.69;4893385;28;102445;-71
2023/02/18 07:50:45;;;;;;;;;1.00;1.00;;;;;7.27;46.47;98378.53;4866658;28;102289;-72
2023/02/18 07:53:14;;;;;;;;;0.00;0.00;;;;;7.37;47.48;98397.91;4895804;28;102437;-72
2023/02/18 07:55:50;;;;;;;;;1.50;0.00;;;;;7.25;46.82;98398.56;4895340;28;104037;-72
2023/02/18 07:58:29;;;;;;;;;1.50;1.00;;;;;7.36;46.24;98398.09;4882052;28;102117;-71
2023/02/18 08:00:57;;;;;;;;;0.25;0.00;;;;;7.29;45.12;98386.41;4884677;28;102041;-71
2023/02/18 08:03:26;;;;;;;;;0.50;0.50;;;;;7.37;46.12;98392.53;4888214;28;101939;-69
2023/02/18 08:05:55;;;;;;;;;1.00;0.00;;;;;7.36;46.06;98390.84;4888778;28;105126;-68
2023/02/18 08:08:26;;;;;;;;;0.25;0.25;;;;;7.38;46.73;98393.38;4890053;28;102208;-71
2023/02/18 08:10:55;;;;;;;;;1.00;1.00;;;;;7.40;46.13;98389.47;4890822;28;102392;-69
2023/02/18 08:13:22;;;;;;;;;1.00;0.00;;;;;7.39;45.82;98400.41;4894191;28;102631;-70
2023/02/18 08:15:49;;;;;;;;;0.00;0.00;;;;;7.28;47.20;98382.88;4883708;28;104113;-70
2023/02/18 08:18:19;;;;;;;;;0.00;0.00;;;;;7.46;46.10;98396.78;4876180;28;102051;-70
2023/02/18 08:20:47;;;;;;;;;3.25;1.00;;;;;7.47;45.71;98400.31;4886972;28;102492;-70
2023/02/18 08:23:15;;;;;;;;;2.00;0.00;;;;;7.50;46.50;98395.41;4893034;28;102477;-71
2023/02/18 08:25:48;;;;;;;;;1.75;1.75;;;;;7.50;45.06;98394.56;4890667;28;103998;-70
2023/02/18 08:28:20;;;;;;;;;1.25;1.00;;;;;7.51;46.00;98372.03;4891800;28;102211;-70
2023/02/18 08:30:48;;;;;;;;;5.00;2.50;;;;;7.53;45.19;98369.97;4895373;28;102599;-71
2023/02/18 08:33:16;;;;;;;;;2.25;2.00;;;;;7.66;45.29;98391.66;4897491;28;101926;-70
2023/02/18 08:35:44;;;;;;;;;1.00;0.00;;;;;7.51;45.03;98372.03;4888365;28;104095;-71
2023/02/18 08:38:11;;;;;;;;;0.00;0.00;;;;;7.62;46.80;98384.97;4874532;28;102539;-71
2023/02/18 08:40:39;;;;;;;;;2.00;1.00;;;;;7.58;45.62;98389.91;4886848;28;102413;-71
2023/02/18 08:43:06;;;;;;;;;2.00;1.00;;;;;7.68;45.56;98395.00;4859612;28;102308;-72
2023/02/18 08:45:33;;;;;;;;;1.50;1.00;;;;;7.80;45.98;98398.88;4869365;28;103985;-72
2023/02/18 08:48:01;;;;;;;;;3.00;2.00;;;;;7.71;44.54;98388.41;4867726;28;102183;-70
2023/02/18 08:50:47;;;;;;;;;1.50;1.00;;;;;7.72;44.81;98407.06;4873758;28;102143;-71
2023/02/18 08:53:14;;;;;;;;;2.00;1.00;;;;;7.77;45.34;98393.88;4880658;28;102792;-70
2023/02/18 08:55:41;;;;;;;;;4.00;3.00;;;;;7.70;46.42;98401.03;4862541;28;104057;-69
2023/02/18 08:58:08;;;;;;;;;6.00;6.00;;;;;7.74;46.41;98394.25;4871807;28;104557;-70
2023/02/18 09:00:37;;;;;;;;;3.00;1.25;;;;;7.71;46.45;98389.25;4866350;28;102370;-70
2023/02/18 09:03:04;;;;;;;;;1.75;1.00;;;;;7.73;46.77;98395.28;4871859;28;102398;-69
2023/02/18 09:05:31;;;;;;;;;0.50;0.50;;;;;7.72;47.03;98382.00;4869346;28;104031;-70
2023/02/18 09:07:58;;;;;;;;;1.50;1.00;;;;;7.77;47.93;98403.81;4879581;28;102092;-70
2023/02/18 09:10:25;;;;;;;;;1.00;1.00;;;;;7.77;46.87;98404.66;4874454;28;102362;-70
2023/02/18 09:12:52;;;;;;;;;3.00;2.00;;;;;7.83;48.17;98393.13;4881045;28;102426;-69
2023/02/18 09:15:19;;;;;;;;;9.50;4.25;;;;;7.83;48.75;98390.44;4867751;28;103991;-70
2023/02/18 09:17:46;;;;;;;;;2.75;2.50;;;;;7.84;49.02;98394.78;4874341;28;102294;-70
2023/02/18 09:20:13;;;;;;;;;1.50;1.50;;;;;7.89;49.08;98395.06;4871633;28;102139;-70
2023/02/18 09:22:41;;;;;;;;;4.00;3.25;;;;;7.93;49.31;98392.81;4885963;28;102293;-69
2023/02/18 09:25:08;;;;;;;;;2.50;2.00;;;;;8.05;50.46;98388.63;4875592;28;103430;-69
2023/02/18 09:27:35;;;;;;;;;3.00;1.00;;;;;8.14;50.84;98381.25;4877659;28;102315;-70
2023/02/18 09:30:02;;;;;;;;;3.00;2.00;;;;;8.11;50.23;98373.53;4870050;28;102364;-70
2023/02/18 09:32:29;;;;;;;;;1.00;0.25;;;;;8.24;50.70;98384.47;4877487;28;102147;-70
2023/02/18 09:35:02;;;;;;;;;2.00;1.25;;;;;8.23;52.44;98377.41;4876254;28;104161;-70
2023/02/18 09:37:29;;;;;;;;;2.00;2.00;;;;;8.22;51.93;98387.34;4878807;28;102055;-70
2023/02/18 09:39:56;;;;;;;;;3.25;1.00;;;;;8.18;52.46;98387.94;4878210;28;102506;-70
2023/02/18 09:42:30;;;;;;;;;1.00;1.00;;;;;8.25;53.12;98386.97;4903859;28;102374;-70
2023/02/18 09:45:01;;;;;;;;;3.75;3.00;;;;;8.05;53.97;98372.47;4910024;28;108698;-70
2023/02/18 09:47:34;;;;;;;;;2.75;2.75;;;;;8.25;54.27;98386.13;4897166;28;102179;-69
2023/02/18 09:50:17;;;;;;;;;3.00;2.00;;;;;8.20;54.94;98373.22;4901961;28;102379;-70
2023/02/18 09:52:45;;;;;;;;;3.25;2.00;;;;;8.12;54.34;98377.91;4898615;28;102264;-69
2023/02/18 09:55:14;;;;;;;;;7.50;2.50;;;;;8.30;54.19;98367.56;4906775;28;104026;-69
2023/02/18 09:57:52;;;;;;;;;2.00;1.00;;;;;8.29;53.81;98365.84;4884722;28;102411;-69
2023/02/18 10:00:25;;;;;;;;;1.75;1.75;;;;;8.20;54.53;98356.22;4894568;28;102458;-70
2023/02/18 10:03:00;;;;;;;;;2.75;1.75;;;;;8.31;54.40;98350.38;4910865;28;102465;-69
2023/02/18 10:05:30;;;;;;;;;2.00;2.00;;;;;8.22;54.26;98349.66;4884593;28;108588;-69
2023/02/18 10:08:04;;;;;;;;;2.00;2.00;;;;;8.16;53.92;98363.88;4891961;28;102232;-70
2023/02/18 10:10:41;;;;;;;;;5.00;2.25;;;;;8.13;51.86;98360.72;4884733;28;102237;-70
2023/02/18 10:13:17;;;;;;;;;0.00;0.00;;;;;8.01;54.35;98360.41;4896960;28;102174;-70
2023/02/18 10:15:45;;;;;;;;;2.00;2.00;;;;;7.90;54.02;98358.19;4914115;28;103960;-69
2023/02/18 10:18:31;;;;;;;;;1.75;1.75;;;;;7.94;53.51;98364.88;4891621;28;102343;-71
2023/02/18 10:21:11;;;;;;;;;3.00;3.00;;;;;7.84;53.35;98373.25;4890012;28;102291;-68
2023/02/18 10:23:42;;;;;;;;;3.00;2.00;;;;;7.75;54.18;98384.31;4885276;28;101978;-68
2023/02/18 10:26:15;;;;;;;;;2.50;1.00;;;;;7.56;56.48;98388.44;4891883;28;103991;-68
2023/02/18 10:28:43;;;;;;;;;0.00;0.00;;;;;7.16;60.27;98389.72;4893086;28;102353;-69
2023/02/18 10:31:17;;;;;;;;;1.00;1.00;;;;;7.04;61.89;98386.66;4901124;28;102132;-71
2023/02/18 10:33:50;;;;;;;;;1.75;1.75;;;;;6.99;62.55;98381.00;4903997;28;102186;-69
2023/02/18 10:36:28;;;;;;;;;2.75;2.00;;;;;7.08;62.96;98382.59;4894468;28;104072;-69
2023/02/18 10:39:04;;;;;;;;;2.00;1.00;;;;;6.82;64.06;98387.56;4893405;28;102048;-69
2023/02/18 10:41:52;;;;;;;;;3.00;2.50;;;;;6.81;65.20;98385.88;4896968;28;102254;-69
2023/02/18 10:44:33;;;;;;;;;2.50;2.00;;;;;6.88;64.70;98381.47;4901414;28;102399;-70
2023/02/18 10:47:12;;;;;;;;;2.25;1.50;;;;;6.86;65.70;98372.75;4892165;28;108314;-70
2023/02/18 10:49:48;;;;;;;;;3.00;3.00;;;;;6.93;64.69;98372.84;4889040;28;102652;-70
2023/02/18 10:52:16;;;;;;;;;2.00;1.75;;;;;6.97;65.51;98368.78;4896216;28;102440;-69
2023/02/18 10:55:05;;;;;;;;;5.25;2.50;;;;;6.95;66.54;98355.50;4898514;28;102884;-69
2023/02/18 10:57:32;;;;;;;;;3.75;3.00;;;;;6.83;67.41;98354.31;4899955;28;109100;-70
2023/02/18 11:00:11;;;;;;;;;3.50;3.25;;;;;6.88;66.25;98351.06;4881534;28;102044;-70
2023/02/18 11:02:38;;;;;;;;;3.75;2.25;;;;;7.08;66.56;98357.56;4886279;28;102244;-70
2023/02/18 11:05:21;;;;;;;;;3.25;2.75;;;;;7.23;66.50;98352.19;4904154;28;101888;-70
2023/02/18 11:07:52;;;;;;;;;6.00;6.00;;;;;7.35;66.38;98346.16;4874737;28;102961;-68
2023/02/18 11:10:32;;;;;;;;;5.50;3.00;;;;;7.35;65.96;98339.94;4893875;28;104516;-69
2023/02/18 11:13:02;;;;;;;;;3.00;3.00;;;;;7.07;66.50;98339.75;4900246;28;102290;-69
2023/02/18 11:15:30;;;;;;;;;3.75;3.00;;;;;7.05;67.69;98342.66;4900132;28;102273;-70
2023/02/18 11:18:12;;;;;;;;;2.50;2.00;;;;;6.86;68.63;98335.13;4902733;28;104220;-69
2023/02/18 11:20:39;;;;;;;;;5.50;3.00;;;;;6.69;69.77;98333.63;4882739;28;104529;-68
2023/02/18 11:23:06;;;;;;;;;2.00;2.00;;;;;6.88;70.19;98327.72;4895947;28;102479;-69
2023/02/18 11:25:39;;;;;;;;;1.75;1.50;;;;;6.98;70.07;98333.63;4902225;28;103367;-69
2023/02/18 11:28:12;;;;;;;;;4.00;3.50;;;;;6.97;69.54;98318.56;4895125;28;103693;-69
2023/02/18 11:30:43;;;;;;;;;8.00;4.00;;;;;6.96;70.27;98311.50;4900186;28;102195;-70
2023/02/18 11:33:39;;;;;;;;;6.25;5.25;;;;;7.12;70.06;98302.41;4885758;28;102352;-70
2023/02/18 11:36:20;;;;;;;;;7.50;5.50;;;;;7.02;70.74;98296.50;4888871;28;102361;-70
2023/02/18 11:38:52;;;;;;;;;3.50;3.50;;;;;7.17;71.13;98289.22;4885889;28;103980;-69
2023/02/18 11:41:29;;;;;;;;;5.50;3.25;;;;;7.11;71.32;98298.06;4890624;28;102397;-69
2023/02/18 11:43:57;;;;;;;;;6.75;6.75;;;;;6.76;72.68;98296.09;4881659;28;102472;-70
2023/02/18 11:46:26;;;;;;;;;3.00;3.00;;;;;6.86;73.02;98289.44;4900425;28;102017;-70
2023/02/18 11:48:54;;;;;;;;;3.00;3.00;;;;;6.95;73.42;98285.63;4906172;28;104043;-70